createdAt,value
2023-03-29T00:01:42.087Z,1.57
2023-03-29T00:04:10.216Z,1.17
2023-03-29T00:06:59.461Z,1.83
2023-03-29T00:09:26.704Z,3.65
2023-03-29T00:11:53.477Z,3.78
2023-03-29T00:14:19.998Z,4.07
2023-03-29T00:16:46.872Z,2.15
2023-03-29T00:19:13.556Z,3.55
2023-03-29T00:21:40.024Z,2.42
2023-03-29T00:24:06.566Z,1.35
2023-03-29T00:26:32.969Z,2.83
2023-03-29T00:28:59.631Z,1.73
2023-03-29T00:31:27.330Z,2.08
2023-03-29T00:33:53.902Z,4.75
2023-03-29T00:36:22.080Z,5.03
2023-03-29T00:38:48.651Z,5.03
2023-03-29T00:41:15.269Z,3.95
2023-03-29T00:43:56.246Z,4.28
2023-03-29T00:46:23.645Z,1.90
2023-03-29T00:48:53.040Z,2.55
2023-03-29T00:51:22.867Z,5.70
2023-03-29T00:53:53.546Z,3.50
2023-03-29T00:56:37.097Z,2.40
2023-03-29T00:59:15.628Z,3.38
2023-03-29T01:02:03.398Z,2.20
2023-03-29T01:04:41.711Z,2.00
2023-03-29T01:07:30.737Z,1.80
2023-03-29T01:10:23.526Z,3.15
2023-03-29T01:13:03.667Z,1.77
2023-03-29T01:15:30.747Z,4.18
2023-03-29T01:17:58.358Z,1.80
2023-03-29T01:20:43.492Z,2.55
2023-03-29T01:23:34.824Z,2.50
2023-03-29T01:26:19.906Z,5.35
2023-03-29T01:28:56.525Z,2.03
2023-03-29T01:31:28.366Z,2.73
2023-03-29T01:34:08.738Z,2.28
2023-03-29T01:36:58.769Z,2.85
2023-03-29T01:39:25.209Z,2.00
2023-03-29T01:41:57.662Z,1.77
2023-03-29T01:45:03.447Z,4.40
2023-03-29T01:48:03.507Z,2.83
2023-03-29T01:50:43.190Z,2.78
2023-03-29T01:53:38.505Z,2.88
2023-03-29T01:56:18.539Z,2.72
2023-03-29T01:58:52.874Z,2.50
2023-03-29T02:01:25.850Z,1.45
2023-03-29T02:03:57.573Z,2.20
2023-03-29T02:06:27.675Z,5.35
2023-03-29T02:08:55.765Z,5.07
2023-03-29T02:11:24.786Z,1.73
2023-03-29T02:13:51.476Z,4.43
2023-03-29T02:16:19.086Z,2.50
2023-03-29T02:18:48.737Z,2.60
2023-03-29T02:21:34.000Z,3.10
2023-03-29T02:24:06.334Z,3.03
2023-03-29T02:26:33.109Z,3.10
2023-03-29T02:28:59.696Z,1.83
2023-03-29T02:31:40.895Z,1.73
2023-03-29T02:34:19.880Z,4.07
2023-03-29T02:36:48.164Z,3.63
2023-03-29T02:39:16.936Z,1.77
2023-03-29T02:41:47.091Z,1.77
2023-03-29T02:44:18.663Z,2.08
2023-03-29T02:46:48.782Z,2.67
2023-03-29T02:49:15.427Z,2.30
2023-03-29T02:51:42.492Z,2.58
2023-03-29T02:54:22.617Z,4.88
2023-03-29T02:56:55.983Z,3.17
2023-03-29T02:59:22.607Z,3.83
2023-03-29T03:01:49.607Z,2.07
2023-03-29T03:04:18.507Z,2.17
2023-03-29T03:06:44.969Z,6.55
2023-03-29T03:09:11.710Z,1.65
2023-03-29T03:11:38.180Z,3.40
2023-03-29T03:14:05.750Z,3.90
2023-03-29T03:16:32.391Z,3.50
2023-03-29T03:18:59.064Z,3.85
2023-03-29T03:21:28.070Z,4.88
2023-03-29T03:23:55.639Z,1.75
2023-03-29T03:26:23.250Z,3.20
2023-03-29T03:28:49.821Z,2.15
2023-03-29T03:31:17.428Z,2.13
2023-03-29T03:33:44.697Z,2.92
2023-03-29T03:36:11.584Z,3.97
2023-03-29T03:38:38.923Z,3.37
2023-03-29T03:41:07.255Z,2.17
2023-03-29T03:43:34.529Z,5.03
2023-03-29T03:46:01.921Z,4.72
2023-03-29T03:48:28.536Z,3.92
2023-03-29T03:50:57.060Z,3.50
2023-03-29T03:53:25.306Z,2.17
2023-03-29T03:55:53.280Z,3.20
2023-03-29T03:58:19.955Z,4.38
2023-03-29T04:00:50.535Z,2.15
2023-03-29T04:03:18.105Z,2.70
2023-03-29T04:05:46.305Z,2.95
2023-03-29T04:08:13.849Z,2.63
2023-03-29T04:10:40.770Z,1.45
2023-03-29T04:13:07.644Z,2.65
2023-03-29T04:15:38.546Z,1.97
2023-03-29T04:18:07.201Z,3.63
2023-03-29T04:20:34.472Z,2.75
2023-03-29T04:23:01.030Z,5.00
2023-03-29T04:25:27.516Z,1.50
2023-03-29T04:27:54.038Z,5.33
2023-03-29T04:30:20.582Z,2.97
2023-03-29T04:32:47.273Z,4.32
2023-03-29T04:35:13.725Z,3.03
2023-03-29T04:37:40.342Z,2.42
2023-03-29T04:40:14.149Z,3.13
2023-03-29T04:42:45.826Z,3.55
2023-03-29T04:45:19.698Z,4.25
2023-03-29T04:47:46.339Z,1.70
2023-03-29T04:50:13.874Z,3.03
2023-03-29T04:52:40.790Z,3.70
2023-03-29T04:55:07.897Z,2.63
2023-03-29T04:57:34.530Z,3.22
2023-03-29T05:00:01.761Z,2.03
2023-03-29T05:02:30.906Z,2.42
2023-03-29T05:04:57.546Z,4.57
2023-03-29T05:07:24.576Z,2.75
2023-03-29T05:09:51.251Z,4.80
2023-03-29T05:12:17.731Z,5.80
2023-03-29T05:14:44.251Z,4.55
2023-03-29T05:17:10.741Z,3.87
2023-03-29T05:19:38.261Z,6.88
2023-03-29T05:22:04.991Z,3.88
2023-03-29T05:24:31.692Z,4.82
2023-03-29T05:26:58.219Z,5.20
2023-03-29T05:29:24.710Z,3.00
2023-03-29T05:31:52.443Z,3.53
2023-03-29T05:34:19.957Z,3.75
2023-03-29T05:36:46.497Z,5.53
2023-03-29T05:39:12.975Z,4.05
2023-03-29T05:41:40.338Z,4.87
2023-03-29T05:44:07.260Z,4.43
2023-03-29T05:46:33.881Z,2.45
2023-03-29T05:49:01.361Z,4.25
2023-03-29T05:51:27.961Z,2.67
2023-03-29T05:53:54.458Z,3.87
2023-03-29T05:56:22.442Z,6.95
2023-03-29T05:58:49.508Z,7.32
2023-03-29T06:01:17.895Z,4.20
2023-03-29T06:03:46.152Z,6.55
2023-03-29T06:06:16.463Z,3.33
2023-03-29T06:08:44.303Z,4.22
2023-03-29T06:11:13.329Z,4.80
2023-03-29T06:13:42.053Z,2.65
2023-03-29T06:16:13.306Z,2.65
2023-03-29T06:18:41.018Z,6.93
2023-03-29T06:21:09.265Z,4.20
2023-03-29T06:23:36.673Z,3.45
2023-03-29T06:26:03.931Z,3.25
2023-03-29T06:28:30.720Z,3.35
2023-03-29T06:33:30.594Z,3.03
2023-03-29T06:35:57.552Z,3.65
2023-03-29T06:38:26.727Z,6.03
2023-03-29T06:41:00.814Z,4.80
2023-03-29T06:43:27.546Z,4.07
2023-03-29T06:45:54.862Z,4.95
2023-03-29T06:48:21.598Z,3.53
2023-03-29T06:50:48.715Z,8.00
2023-03-29T06:53:18.011Z,3.22
2023-03-29T06:55:44.594Z,4.47
2023-03-29T06:58:11.221Z,6.00
2023-03-29T07:00:39.243Z,4.05
2023-03-29T07:03:09.795Z,6.30
2023-03-29T07:05:40.673Z,4.90
2023-03-29T07:08:07.780Z,4.20
2023-03-29T07:10:41.142Z,4.85
2023-03-29T07:13:13.178Z,3.38
2023-03-29T07:15:41.650Z,5.47
2023-03-29T07:18:09.613Z,5.60
2023-03-29T07:20:38.321Z,9.50
2023-03-29T07:23:05.753Z,6.82
2023-03-29T07:25:33.946Z,3.20
2023-03-29T07:28:00.464Z,3.20
2023-03-29T07:30:31.643Z,6.38
2023-03-29T07:32:59.527Z,6.87
2023-03-29T07:35:27.004Z,10.60
2023-03-29T07:37:55.452Z,4.00
2023-03-29T07:40:23.401Z,8.82
2023-03-29T07:42:53.066Z,11.27
2023-03-29T07:45:26.805Z,9.10
2023-03-29T07:47:57.563Z,9.68
2023-03-29T07:50:24.976Z,6.97
2023-03-29T07:52:51.775Z,10.00
2023-03-29T07:55:18.471Z,7.00
2023-03-29T07:57:44.969Z,9.70
2023-03-29T08:00:17.065Z,7.18
2023-03-29T08:02:49.740Z,6.72
2023-03-29T08:05:26.095Z,9.93
2023-03-29T08:08:00.885Z,4.57
2023-03-29T08:10:27.806Z,4.83
2023-03-29T08:12:54.388Z,9.05
2023-03-29T08:15:20.880Z,6.22
2023-03-29T08:17:47.376Z,4.25
2023-03-29T08:20:16.217Z,6.00
2023-03-29T08:22:43.211Z,6.00
2023-03-29T08:25:10.371Z,8.70
2023-03-29T08:27:37.620Z,9.23
2023-03-29T08:30:07.835Z,8.48
2023-03-29T08:32:34.293Z,9.55
2023-03-29T08:35:03.782Z,9.00
2023-03-29T08:37:31.744Z,6.55
2023-03-29T08:39:58.535Z,11.52
2023-03-29T08:42:55.258Z,9.50
2023-03-29T08:45:27.759Z,10.05
2023-03-29T08:48:09.633Z,10.37
2023-03-29T08:50:40.499Z,8.70
2023-03-29T08:53:32.511Z,8.52
2023-03-29T08:56:02.412Z,5.32
2023-03-29T08:58:32.803Z,6.88
2023-03-29T09:01:03.786Z,5.63
2023-03-29T09:03:35.032Z,7.20
2023-03-29T09:06:07.682Z,7.20
2023-03-29T09:08:39.383Z,8.98
2023-03-29T09:11:26.062Z,11.25
2023-03-29T09:14:27.012Z,8.93
2023-03-29T09:16:56.416Z,6.97
2023-03-29T09:19:37.779Z,7.40
2023-03-29T09:22:04.270Z,7.03
2023-03-29T09:24:44.344Z,10.77
2023-03-29T09:27:50.268Z,10.40
2023-03-29T09:30:26.286Z,8.73
2023-03-29T09:32:56.637Z,9.63
2023-03-29T09:35:41.210Z,13.07
2023-03-29T09:38:12.385Z,8.75
2023-03-29T09:40:48.933Z,10.83
2023-03-29T09:43:19.217Z,10.70
2023-03-29T09:45:53.232Z,8.90
2023-03-29T09:48:20.760Z,6.05
2023-03-29T09:50:51.250Z,6.55
2023-03-29T09:53:19.555Z,7.17
2023-03-29T09:55:50.308Z,9.30
2023-03-29T09:58:25.089Z,7.85
2023-03-29T10:00:53.163Z,7.22
2023-03-29T10:03:28.490Z,18.65
2023-03-29T10:05:58.476Z,6.37
2023-03-29T10:08:39.139Z,9.13
2023-03-29T10:11:23.317Z,8.10
2023-03-29T10:13:56.816Z,13.88
2023-03-29T10:16:25.923Z,9.52
2023-03-29T10:18:54.571Z,10.83
2023-03-29T10:21:22.048Z,13.88
2023-03-29T10:23:49.970Z,8.10
2023-03-29T10:26:24.805Z,7.55
2023-03-29T10:28:54.864Z,11.70
2023-03-29T10:31:22.661Z,7.87
2023-03-29T10:33:57.368Z,6.63
2023-03-29T10:36:27.223Z,10.52
2023-03-29T10:38:57.422Z,10.77
2023-03-29T10:41:27.056Z,11.75
2023-03-29T10:43:54.537Z,7.67
2023-03-29T10:46:30.163Z,7.63
2023-03-29T10:48:57.767Z,8.93
2023-03-29T10:51:27.861Z,13.90
2023-03-29T10:53:54.346Z,8.15
2023-03-29T10:56:37.104Z,12.57
2023-03-29T10:59:29.578Z,10.35
2023-03-29T11:02:14.802Z,9.90
2023-03-29T11:04:56.697Z,13.32
2023-03-29T11:08:08.023Z,14.30
2023-03-29T11:11:02.565Z,9.17
2023-03-29T11:13:48.019Z,8.80
2023-03-29T11:16:46.824Z,9.20
2023-03-29T11:19:26.357Z,10.85
2023-03-29T11:22:03.022Z,9.80
2023-03-29T11:24:50.115Z,10.77
2023-03-29T11:27:31.228Z,12.32
2023-03-29T11:30:16.621Z,15.65
2023-03-29T11:33:04.967Z,8.93
2023-03-29T11:35:31.654Z,12.15
2023-03-29T11:38:27.945Z,11.23
2023-03-29T11:41:16.048Z,9.88
2023-03-29T11:43:58.700Z,9.13
2023-03-29T11:46:33.714Z,6.97
2023-03-29T11:49:12.420Z,7.30
2023-03-29T11:51:54.415Z,8.37
2023-03-29T11:54:41.100Z,9.80
2023-03-29T11:57:29.257Z,11.60
2023-03-29T12:00:05.866Z,8.60
2023-03-29T12:02:46.147Z,7.97
2023-03-29T12:05:39.587Z,11.37
2023-03-29T12:08:15.310Z,10.88
2023-03-29T12:10:53.725Z,14.98
2023-03-29T12:13:33.854Z,10.65
2023-03-29T12:16:08.764Z,12.25
2023-03-29T12:18:51.400Z,12.60
2023-03-29T12:21:22.945Z,12.30
2023-03-29T12:23:50.708Z,12.68
2023-03-29T12:26:44.726Z,11.93
2023-03-29T12:29:14.020Z,10.07
2023-03-29T12:31:53.013Z,9.73
2023-03-29T12:34:35.912Z,9.95
2023-03-29T12:37:09.722Z,8.13
2023-03-29T12:39:37.499Z,10.80
2023-03-29T12:42:17.643Z,12.45
2023-03-29T12:44:49.582Z,9.33
2023-03-29T12:47:25.266Z,12.98
2023-03-29T12:49:56.612Z,14.13
2023-03-29T12:52:41.977Z,14.25
2023-03-29T12:55:29.633Z,11.82
2023-03-29T12:58:06.747Z,13.90
2023-03-29T13:01:05.800Z,30.52
2023-03-29T13:03:49.263Z,15.32
2023-03-29T13:06:35.313Z,14.90
2023-03-29T13:09:20.286Z,16.77
2023-03-29T13:11:53.552Z,17.60
2023-03-29T13:14:23.953Z,21.80
2023-03-29T13:16:50.557Z,14.48
2023-03-29T13:19:36.948Z,14.85
2023-03-29T13:22:25.137Z,19.83
2023-03-29T13:25:10.076Z,11.93
2023-03-29T13:28:04.744Z,14.65
2023-03-29T13:30:45.932Z,12.70
2023-03-29T13:33:38.202Z,13.50
2023-03-29T13:36:18.016Z,12.05
2023-03-29T13:38:48.721Z,10.63
2023-03-29T13:41:37.825Z,11.75
2023-03-29T13:44:05.271Z,11.40
2023-03-29T13:46:42.534Z,14.50
2023-03-29T13:49:15.506Z,11.48
2023-03-29T13:51:58.897Z,15.17
2023-03-29T13:54:33.030Z,14.27
2023-03-29T13:57:11.110Z,12.50
2023-03-29T13:59:49.678Z,14.20
2023-03-29T14:02:53.657Z,10.25
2023-03-29T14:05:28.723Z,11.20
2023-03-29T14:07:55.553Z,9.00
2023-03-29T14:10:31.995Z,11.65
2023-03-29T14:13:04.251Z,11.90
2023-03-29T14:15:51.590Z,11.85
2023-03-29T14:18:22.612Z,9.43
2023-03-29T14:20:54.884Z,9.65
2023-03-29T14:23:27.289Z,7.45
2023-03-29T14:25:53.808Z,9.82
2023-03-29T14:28:28.829Z,8.95
2023-03-29T14:30:56.583Z,9.50
2023-03-29T14:33:33.438Z,11.25
2023-03-29T14:36:05.026Z,11.35
2023-03-29T14:38:32.388Z,8.25
2023-03-29T14:41:00.428Z,8.75
2023-03-29T14:43:30.350Z,9.30
2023-03-29T14:45:58.388Z,8.70
2023-03-29T14:48:25.768Z,7.93
2023-03-29T14:50:52.783Z,7.03
2023-03-29T14:53:22.675Z,8.02
2023-03-29T14:55:52.977Z,12.00
2023-03-29T14:58:19.962Z,7.60
2023-03-29T15:00:50.227Z,6.57
2023-03-29T15:03:17.061Z,10.82
2023-03-29T15:05:50.006Z,5.60
2023-03-29T15:08:32.327Z,10.77
2023-03-29T15:10:59.471Z,9.15
2023-03-29T15:13:27.506Z,8.02
2023-03-29T15:15:58.960Z,6.38
2023-03-29T15:18:40.944Z,9.30
2023-03-29T15:21:09.267Z,8.03
2023-03-29T15:23:41.179Z,10.43
2023-03-29T15:26:07.678Z,11.65
2023-03-29T15:28:35.768Z,8.82
2023-03-29T15:31:14.248Z,6.55
2023-03-29T15:33:42.296Z,6.63
2023-03-29T15:36:12.075Z,4.47
2023-03-29T15:38:44.443Z,6.55
2023-03-29T15:41:13.517Z,4.20
2023-03-29T15:43:41.227Z,5.38
2023-03-29T15:46:08.239Z,5.77
2023-03-29T15:48:35.207Z,5.32
2023-03-29T15:51:05.501Z,5.35
2023-03-29T15:53:33.264Z,6.50
2023-03-29T15:56:01.930Z,6.43
2023-03-29T15:58:31.597Z,6.17
2023-03-29T16:01:11.274Z,5.45
2023-03-29T16:03:41.833Z,6.03
2023-03-29T16:06:12.269Z,5.05
2023-03-29T16:08:38.988Z,5.30
2023-03-29T16:11:06.763Z,7.53
2023-03-29T16:13:33.412Z,4.38
2023-03-29T16:15:59.985Z,7.95
2023-03-29T16:18:27.162Z,5.10
2023-03-29T16:20:54.272Z,4.18
2023-03-29T16:23:20.797Z,3.87
2023-03-29T16:25:47.385Z,7.00
2023-03-29T16:28:13.971Z,19.50
2023-03-29T16:30:43.589Z,6.63
2023-03-29T16:33:10.704Z,5.95
2023-03-29T16:35:39.999Z,4.50
2023-03-29T16:38:08.065Z,4.03
2023-03-29T16:40:35.103Z,3.45
2023-03-29T16:43:01.758Z,2.63
2023-03-29T16:45:28.304Z,3.28
2023-03-29T16:47:55.869Z,4.23
2023-03-29T16:50:23.793Z,6.10
2023-03-29T16:52:52.413Z,2.42
2023-03-29T16:55:19.293Z,5.40
2023-03-29T16:57:47.148Z,4.28
2023-03-29T17:00:15.952Z,4.93
2023-03-29T17:02:43.745Z,6.97
2023-03-29T17:05:12.048Z,4.22
2023-03-29T17:07:39.345Z,4.07
2023-03-29T17:10:08.250Z,5.22
2023-03-29T17:12:35.731Z,6.73
2023-03-29T17:15:03.346Z,6.20
2023-03-29T17:17:29.862Z,3.53
2023-03-29T17:19:57.108Z,4.85
2023-03-29T17:22:24.824Z,4.03
2023-03-29T17:24:51.420Z,7.23
2023-03-29T17:27:18.778Z,6.30
2023-03-29T17:29:45.428Z,7.03
2023-03-29T17:32:13.167Z,4.50
2023-03-29T17:34:39.734Z,4.60
2023-03-29T17:37:06.330Z,4.10
2023-03-29T17:39:37.498Z,6.03
2023-03-29T17:42:05.667Z,5.15
2023-03-29T17:44:33.379Z,4.05
2023-03-29T17:47:00.882Z,2.63
2023-03-29T17:49:27.864Z,4.23
2023-03-29T17:51:54.615Z,6.22
2023-03-29T18:03:36.082Z,5.43
2023-03-29T18:21:12.766Z,12.48
2023-03-29T18:23:42.175Z,4.45
2023-03-29T18:26:09.326Z,7.47
2023-03-29T18:28:37.477Z,10.02
2023-03-29T18:31:05.536Z,7.33
2023-03-29T18:33:35.184Z,4.28
2023-03-29T18:36:09.159Z,3.85
2023-03-29T18:38:40.517Z,4.22
2023-03-29T18:41:08.508Z,9.00
2023-03-29T18:43:35.412Z,7.17
2023-03-29T18:46:02.475Z,4.45
2023-03-29T18:48:30.289Z,7.03
2023-03-29T18:50:57.830Z,6.38
2023-03-29T18:53:24.741Z,4.38
2023-03-29T18:55:51.202Z,5.63
2023-03-29T18:58:18.098Z,6.88
2023-03-29T19:00:44.833Z,5.78
2023-03-29T19:03:11.635Z,6.45
2023-03-29T19:05:39.421Z,5.28
2023-03-29T19:08:07.089Z,7.47
2023-03-29T19:10:38.816Z,5.15
2023-03-29T19:13:06.055Z,4.90
2023-03-29T19:15:34.602Z,4.78
2023-03-29T19:18:01.483Z,4.43
2023-03-29T19:20:29.289Z,11.87
2023-03-29T19:22:56.310Z,9.60
2023-03-29T19:25:22.930Z,4.88
2023-03-29T19:27:50.233Z,6.90
2023-03-29T19:30:18.104Z,3.60
2023-03-29T19:32:44.585Z,3.90
2023-03-29T19:35:12.822Z,8.18
2023-03-29T19:37:39.684Z,7.38
2023-03-29T19:40:08.162Z,3.42
2023-03-29T19:42:37.466Z,4.50
2023-03-29T19:45:09.656Z,7.17
2023-03-29T19:47:37.180Z,4.45
2023-03-29T19:50:04.935Z,4.88
2023-03-29T19:52:31.495Z,3.60
2023-03-29T19:55:00.777Z,4.10
2023-03-29T19:57:28.229Z,3.60
2023-03-29T19:59:54.767Z,4.90
2023-03-29T20:02:21.248Z,4.32
2023-03-29T20:04:47.852Z,3.42
2023-03-29T20:07:14.365Z,4.10
2023-03-29T20:09:44.644Z,4.77
2023-03-29T20:12:12.024Z,7.70
2023-03-29T20:14:40.132Z,8.52
2023-03-29T20:17:07.310Z,4.35
2023-03-29T20:19:36.768Z,6.43
2023-03-29T20:22:04.469Z,5.53
2023-03-29T20:24:32.530Z,9.02
2023-03-29T20:26:59.117Z,7.88
2023-03-29T20:29:25.668Z,5.45
2023-03-29T20:31:52.255Z,7.00
2023-03-29T20:34:19.077Z,6.30
2023-03-29T20:36:46.972Z,5.93
2023-03-29T20:39:17.787Z,8.05
2023-03-29T20:41:47.713Z,6.88
2023-03-29T20:44:16.910Z,6.82
2023-03-29T20:46:54.595Z,4.27
2023-03-29T20:49:26.465Z,3.95
2023-03-29T20:51:58.385Z,7.05
2023-03-29T20:54:25.948Z,4.35
2023-03-29T20:56:54.436Z,7.68
2023-03-29T20:59:22.829Z,7.03
2023-03-29T21:01:50.239Z,10.05
2023-03-29T21:04:16.968Z,7.35
2023-03-29T21:06:45.742Z,6.38
2023-03-29T21:09:13.223Z,4.75
2023-03-29T21:11:40.880Z,6.93
2023-03-29T21:14:09.252Z,9.52
2023-03-29T21:25:40.603Z,6.23
2023-03-29T21:28:07.161Z,6.40
2023-03-29T21:30:33.588Z,4.95
2023-03-29T21:33:01.000Z,5.85
2023-03-29T21:35:28.213Z,6.95
2023-03-29T21:37:54.886Z,8.70
2023-03-29T21:40:21.503Z,6.85
2023-03-29T21:42:47.980Z,8.38
2023-03-29T21:45:15.490Z,6.80
2023-03-29T21:47:42.031Z,5.00
2023-03-29T21:50:09.407Z,7.30
2023-03-29T21:52:37.778Z,7.72
2023-03-29T21:55:05.857Z,4.93
2023-03-29T21:57:32.348Z,5.95
2023-03-29T21:59:58.931Z,4.22
2023-03-29T22:02:25.638Z,4.77
2023-03-29T22:04:52.127Z,7.28
2023-03-29T22:07:18.553Z,4.40
2023-03-29T22:09:46.505Z,6.93
2023-03-29T22:12:12.982Z,5.60
2023-03-29T22:14:39.528Z,7.43
2023-03-29T22:17:06.912Z,5.78
2023-03-29T22:19:41.740Z,6.28
2023-03-29T22:22:13.499Z,11.23
2023-03-29T22:24:41.349Z,6.75
2023-03-29T22:27:08.362Z,7.03
2023-03-29T22:29:34.934Z,7.32
2023-03-29T22:32:01.798Z,4.82
2023-03-29T22:34:28.411Z,5.30
2023-03-29T22:36:54.910Z,3.05
2023-03-29T22:39:21.779Z,5.47
2023-03-29T22:41:48.341Z,6.05
2023-03-29T22:44:14.782Z,10.05
2023-03-29T22:46:42.415Z,4.72
2023-03-29T22:49:09.685Z,4.50
2023-03-29T22:51:36.508Z,5.57
2023-03-29T22:54:03.484Z,4.90
2023-03-29T22:56:29.954Z,6.40
2023-03-29T22:58:56.486Z,4.82
2023-03-29T23:01:22.914Z,5.20
2023-03-29T23:03:49.495Z,7.00
2023-03-29T23:06:16.143Z,7.82
2023-03-29T23:08:42.690Z,5.07
2023-03-29T23:11:09.126Z,7.72
2023-03-29T23:13:35.712Z,5.55
2023-03-29T23:16:03.630Z,3.43
2023-03-29T23:18:31.867Z,5.57
2023-03-29T23:20:58.976Z,3.67
2023-03-29T23:23:26.823Z,3.45
2023-03-29T23:25:55.465Z,3.97
2023-03-29T23:28:25.912Z,3.37
2023-03-29T23:31:09.794Z,6.30
2023-03-29T23:33:42.535Z,3.42
2023-03-29T23:36:15.112Z,5.18
2023-03-29T23:38:42.274Z,6.05
2023-03-29T23:41:10.805Z,4.00
2023-03-29T23:43:40.517Z,9.05
2023-03-29T23:46:11.013Z,6.30
2023-03-29T23:48:38.574Z,3.60
2023-03-29T23:51:07.757Z,6.20
2023-03-29T23:53:34.250Z,5.93
2023-03-29T23:56:03.121Z,6.90
2023-03-29T23:58:32.293Z,2.78
